Takamatsu Airport, Japan

2:18 PM JST on July 14, 2014 (GMT +0900)
Tokushima (RJOS) Elev 36 ft | 34.13 °N, 134.61 °E | Change Station

Current weather conditions updated 14 minutes ago

Light Rain Showers
Light Showers Rain Mist
77 °F
Feels Like 77 °F
N
7
Wind Variable Wind from SSE

Today is forecast to be nearly the same temperature as yesterday.

Today
High -- | Low -- °F
--% Chance of Precip.
Yesterday
High -- | Low -- °F
Precip. -- in
5:02 AM 7:16 PM
Waning Gibbous, 95% visible
Pressure 29.77 in
Visibility 1.2 miles
Clouds Few 800 ft
Scattered Clouds 1500 ft
Overcast 2500 ft
Few 2500 ft
Dew Point 75 °F
Humidity 94%
Rainfall 0.00 in
Snow Depth Not available.
UV 10 out of 12
Pollen Not available.
Air Quality Not available.
Flu Activity Not available.
SPECI RJOS 140504Z 16006KT 130V190 2000 R29/0800VP1800U -SHRA BR FEW008 SCT015 OVC025 FEW025CB 25/24 Q1008 RMK 1ST008 3CU015 8CU025 2CB025 A2978 R1800 CB 8KM E AND 10KM W MOV E

More Conditions Fewer Conditions

Pressure 29.77 in
Visibility 1.2 miles
Clouds Few 800 ft
Scattered Clouds 1500 ft
Overcast 2500 ft
Few 2500 ft
Dew Point 75 °F
Humidity 94%
Rainfall 0.00 in
Snow Depth Not available.
UV 10 out of 12
Pollen Not available.
Air Quality Not available.
Flu Activity Not available.
SPECI RJOS 140504Z 16006KT 130V190 2000 R29/0800VP1800U -SHRA BR FEW008 SCT015 OVC025 FEW025CB 25/24 Q1008 RMK 1ST008 3CU015 8CU025 2CB025 A2978 R1800 CB 8KM E AND 10KM W MOV E

More Conditions Fewer Conditions

10-Day Weather Forecast

Almanac

Astronomy

Jul. 14, 2014 Rise Set
Actual Time 5:02 AM JST 7:16 PM JST
Civil Twilight 4:33 AM JST 7:45 PM JST
Nautical Twilight 3:58 AM JST 8:20 PM JST
Astronomical Twilight 3:20 AM JST 8:58 PM JST
Moon 8:30 PM JST 6:53 AM JST
Length of Visible Light 15h 12m
Length of Day
14h 14m
Tomorrow will be 1m 2s shorter.
Waning Gibbous, 95% of the Moon is Illuminated
Today
Waning Gibbous
Jul 18
Last Quarter
Jul 26
New
Aug 3
First Quarter
Aug 10
Full

Yesterday's Extremes

Country Highs Country Lows

Community

WunderPhotos

Upload Photos

1,733,563 photos uploaded!

Nearby

Snow Depth

Not available.

Earthquake Activity

City Distance Mag. Time & Date
No recent earthquake activity has been reported nearby.
Minimum magnitude displayed is 2.5.

Coastal Water Temperatures

Place Temperature
No Stations Reporting

Nearby Weather Stations

There are no personal weather stations in this area.